createdAt,value
2022-10-17T00:02:25.766Z,9.38
2022-10-17T00:04:52.754Z,9.26
2022-10-17T00:07:19.826Z,9.23
2022-10-17T00:09:46.656Z,9.33
2022-10-17T00:12:13.589Z,9.40
2022-10-17T00:14:40.667Z,9.44
2022-10-17T00:17:07.624Z,9.40
2022-10-17T00:19:35.325Z,9.30
2022-10-17T00:22:02.245Z,9.18
2022-10-17T00:24:31.345Z,9.06
2022-10-17T00:26:58.266Z,9.01
2022-10-17T00:29:25.775Z,9.07
2022-10-17T00:31:58.867Z,9.05
2022-10-17T00:34:26.191Z,9.00
2022-10-17T00:36:53.227Z,8.94
2022-10-17T00:39:20.830Z,8.86
2022-10-17T00:41:47.934Z,8.82
2022-10-17T00:44:33.667Z,8.79
2022-10-17T00:47:05.247Z,8.80
2022-10-17T00:49:35.386Z,8.80
2022-10-17T00:52:06.906Z,8.76
2022-10-17T00:54:37.651Z,8.71
2022-10-17T00:57:05.189Z,8.72
2022-10-17T00:59:34.995Z,8.71
2022-10-17T01:02:17.355Z,8.66
2022-10-17T01:04:47.049Z,8.66
2022-10-17T01:07:14.424Z,8.67
2022-10-17T01:09:42.053Z,8.67
2022-10-17T01:12:24.126Z,8.61
2022-10-17T01:15:19.309Z,8.54
2022-10-17T01:18:11.384Z,8.54
2022-10-17T01:21:03.215Z,8.54
2022-10-17T01:24:02.403Z,8.54
2022-10-17T01:27:20.427Z,8.58
2022-10-17T01:30:10.926Z,8.62
2022-10-17T01:32:47.491Z,8.64
2022-10-17T01:35:24.147Z,8.69
2022-10-17T01:38:27.755Z,8.71
2022-10-17T01:41:10.954Z,8.67
2022-10-17T01:43:43.971Z,8.60
2022-10-17T01:46:18.628Z,8.63
2022-10-17T01:48:47.571Z,8.62
2022-10-17T01:51:25.208Z,8.61
2022-10-17T01:54:15.114Z,8.62
2022-10-17T01:56:43.745Z,8.63
2022-10-17T01:59:33.594Z,8.64
2022-10-17T02:02:02.116Z,8.65
2022-10-17T02:04:29.467Z,8.62
2022-10-17T02:06:56.513Z,8.62
2022-10-17T02:09:27.457Z,8.58
2022-10-17T02:12:09.831Z,8.57
2022-10-17T02:14:36.866Z,8.55
2022-10-17T02:17:15.030Z,8.52
2022-10-17T02:19:58.185Z,8.46
2022-10-17T02:22:48.544Z,8.43
2022-10-17T02:25:21.446Z,8.45
2022-10-17T02:27:59.270Z,8.61
2022-10-17T02:30:37.693Z,8.71
2022-10-17T02:33:10.345Z,8.59
2022-10-17T02:35:42.004Z,8.49
2022-10-17T02:38:11.266Z,8.43
2022-10-17T02:40:40.147Z,8.52
2022-10-17T02:43:07.435Z,8.48
2022-10-17T02:45:37.286Z,8.41
2022-10-17T02:48:37.854Z,8.36
2022-10-17T02:51:23.564Z,8.35
2022-10-17T02:54:09.275Z,8.41
2022-10-17T02:56:44.431Z,8.53
2022-10-17T02:59:14.646Z,8.65
2022-10-17T03:01:43.777Z,8.67
2022-10-17T03:04:14.955Z,8.61
2022-10-17T03:06:42.725Z,8.58
2022-10-17T03:09:09.708Z,8.53
2022-10-17T03:11:36.804Z,8.48
2022-10-17T03:14:04.662Z,8.48
2022-10-17T03:16:32.152Z,8.54
2022-10-17T03:18:59.241Z,8.57
2022-10-17T03:21:26.364Z,8.52
2022-10-17T03:23:53.426Z,8.43
2022-10-17T03:26:22.536Z,8.37
2022-10-17T03:28:53.496Z,8.31
2022-10-17T03:31:22.963Z,8.24
2022-10-17T03:33:51.592Z,8.20
2022-10-17T03:36:19.608Z,8.23
2022-10-17T03:38:47.921Z,8.18
2022-10-17T03:41:16.946Z,8.14
2022-10-17T03:43:43.869Z,8.11
2022-10-17T03:46:10.930Z,8.22
2022-10-17T03:48:38.425Z,8.29
2022-10-17T03:51:08.213Z,8.25
2022-10-17T03:53:41.016Z,8.25
2022-10-17T03:56:16.168Z,8.23
2022-10-17T03:58:45.268Z,8.24
2022-10-17T04:01:15.273Z,8.39
2022-10-17T04:03:43.104Z,8.49
2022-10-17T04:06:12.908Z,8.46
2022-10-17T04:08:43.302Z,8.42
2022-10-17T04:11:16.782Z,8.39
2022-10-17T04:13:45.085Z,8.41
2022-10-17T04:16:18.653Z,8.39
2022-10-17T04:18:55.543Z,8.40
2022-10-17T04:21:25.366Z,8.43
2022-10-17T04:23:56.763Z,8.40
2022-10-17T04:26:40.504Z,8.39
2022-10-17T04:29:07.694Z,8.41
2022-10-17T04:31:34.929Z,8.39
2022-10-17T04:34:10.003Z,8.41
2022-10-17T04:36:38.229Z,8.46
2022-10-17T04:39:06.104Z,8.51
2022-10-17T04:41:33.329Z,8.55
2022-10-17T04:44:02.305Z,8.60
2022-10-17T04:46:34.366Z,8.62
2022-10-17T04:49:01.388Z,8.63
2022-10-17T04:51:29.317Z,8.65
2022-10-17T04:54:22.567Z,8.71
2022-10-17T04:56:55.896Z,8.75
2022-10-17T04:59:23.048Z,8.76
2022-10-17T05:02:04.906Z,8.80
2022-10-17T05:04:33.608Z,8.83
2022-10-17T05:07:00.706Z,8.87
2022-10-17T05:09:46.192Z,8.94
2022-10-17T05:12:13.465Z,9.00
2022-10-17T05:14:44.403Z,9.03
2022-10-17T05:17:11.530Z,9.02
2022-10-17T05:19:39.274Z,9.04
2022-10-17T05:22:08.256Z,9.05
2022-10-17T05:24:35.526Z,9.07
2022-10-17T05:27:03.696Z,9.09
2022-10-17T05:29:30.736Z,9.12
2022-10-17T05:32:06.252Z,9.14
2022-10-17T05:34:35.132Z,9.16
2022-10-17T05:37:02.107Z,9.15
2022-10-17T05:39:29.425Z,9.15
2022-10-17T05:41:57.886Z,9.16
2022-10-17T05:44:25.230Z,9.20
2022-10-17T05:46:55.990Z,9.23
2022-10-17T05:49:33.333Z,9.25
2022-10-17T05:52:10.484Z,9.28
2022-10-17T05:54:51.464Z,9.27
2022-10-17T05:57:18.883Z,9.30
2022-10-17T05:59:45.807Z,9.33
2022-10-17T06:02:19.699Z,9.34
2022-10-17T06:04:48.927Z,9.38
2022-10-17T06:07:17.470Z,9.39
2022-10-17T06:12:13.224Z,9.49
2022-10-17T06:14:41.783Z,9.56
2022-10-17T06:17:13.427Z,9.62
2022-10-17T06:19:44.985Z,9.66
2022-10-17T06:22:15.173Z,9.71
2022-10-17T06:24:42.774Z,9.80
2022-10-17T06:27:11.980Z,9.89
2022-10-17T06:29:41.243Z,10.00
2022-10-17T06:32:11.159Z,10.13
2022-10-17T06:34:42.379Z,10.29
2022-10-17T06:37:09.912Z,10.46
2022-10-17T06:39:39.177Z,10.61
2022-10-17T06:42:18.962Z,10.74
2022-10-17T06:44:49.399Z,10.82
2022-10-17T06:47:36.044Z,10.87
2022-10-17T06:50:12.464Z,10.95
2022-10-17T06:52:51.822Z,11.00
2022-10-17T06:55:37.463Z,11.08
2022-10-17T06:58:20.483Z,11.19
2022-10-17T07:01:01.434Z,11.24
2022-10-17T07:03:29.261Z,11.30
2022-10-17T07:05:56.983Z,11.37
2022-10-17T07:08:24.902Z,11.35
2022-10-17T07:10:53.584Z,11.32
2022-10-17T07:13:21.183Z,11.31
2022-10-17T07:15:48.545Z,11.35
2022-10-17T07:18:17.994Z,11.43
2022-10-17T07:20:53.845Z,11.51
2022-10-17T07:23:21.502Z,11.65
2022-10-17T07:25:48.635Z,11.76
2022-10-17T07:28:17.883Z,11.93
2022-10-17T07:30:49.304Z,12.06
2022-10-17T07:33:17.789Z,12.13
2022-10-17T07:35:44.903Z,12.17
2022-10-17T07:38:11.925Z,12.21
2022-10-17T07:40:39.022Z,12.23
2022-10-17T07:43:06.682Z,12.17
2022-10-17T07:45:33.783Z,12.19
2022-10-17T07:48:00.802Z,12.31
2022-10-17T07:50:27.884Z,12.49
2022-10-17T07:52:54.906Z,12.64
2022-10-17T07:55:22.111Z,12.80
2022-10-17T07:57:49.093Z,12.95
2022-10-17T08:00:16.088Z,13.03
2022-10-17T08:02:43.062Z,13.14
2022-10-17T08:05:10.142Z,13.27
2022-10-17T08:07:37.203Z,13.40
2022-10-17T08:10:04.685Z,13.55
2022-10-17T08:12:34.507Z,13.72
2022-10-17T08:15:02.528Z,13.91
2022-10-17T08:17:29.963Z,14.09
2022-10-17T08:19:57.062Z,14.27
2022-10-17T08:22:24.183Z,14.39
2022-10-17T08:24:51.150Z,14.46
2022-10-17T08:27:23.983Z,14.48
2022-10-17T08:29:54.695Z,14.52
2022-10-17T08:32:24.986Z,14.56
2022-10-17T08:34:55.763Z,14.63
2022-10-17T08:37:23.605Z,14.66
2022-10-17T08:39:50.637Z,14.62
2022-10-17T08:42:20.442Z,14.56
2022-10-17T08:45:01.486Z,14.53
2022-10-17T08:47:41.386Z,14.55
2022-10-17T08:50:29.785Z,14.64
2022-10-17T08:53:35.811Z,14.78
2022-10-17T08:56:11.959Z,14.89
2022-10-17T08:58:42.344Z,15.01
2022-10-17T09:01:30.926Z,15.12
2022-10-17T09:04:03.852Z,15.27
2022-10-17T09:06:38.162Z,15.41
2022-10-17T09:09:14.200Z,15.50
2022-10-17T09:12:02.705Z,15.54
2022-10-17T09:14:49.404Z,15.60
2022-10-17T09:17:38.705Z,15.65
2022-10-17T09:20:30.347Z,15.68
2022-10-17T09:23:04.462Z,15.77
2022-10-17T09:25:39.963Z,15.85
2022-10-17T09:28:31.441Z,15.96
2022-10-17T09:31:00.225Z,15.99
2022-10-17T09:33:59.203Z,15.94
2022-10-17T09:36:35.610Z,15.97
2022-10-17T09:39:05.626Z,16.02
2022-10-17T09:41:46.805Z,16.17
2022-10-17T09:44:32.900Z,16.35
2022-10-17T09:47:25.211Z,16.46
2022-10-17T09:49:52.873Z,16.53
2022-10-17T09:52:29.094Z,16.61
2022-10-17T09:55:20.703Z,16.67
2022-10-17T09:58:06.434Z,16.71
2022-10-17T10:00:35.074Z,16.72
2022-10-17T10:03:21.804Z,16.75
2022-10-17T10:06:13.422Z,16.72
2022-10-17T10:08:55.418Z,16.75
2022-10-17T10:11:40.875Z,16.86
2022-10-17T10:14:13.692Z,16.87
2022-10-17T10:16:43.544Z,16.85
2022-10-17T10:19:31.204Z,16.82
2022-10-17T10:22:19.425Z,16.86
2022-10-17T10:24:46.702Z,16.87
2022-10-17T10:27:16.462Z,16.89
2022-10-17T10:29:49.503Z,16.98
2022-10-17T10:32:34.263Z,17.12
2022-10-17T10:35:06.304Z,17.26
2022-10-17T10:37:38.702Z,17.39
2022-10-17T10:40:08.199Z,17.46
2022-10-17T10:42:39.985Z,17.50
2022-10-17T10:45:09.422Z,17.59
2022-10-17T10:47:59.124Z,17.59
2022-10-17T10:50:49.582Z,17.61
2022-10-17T10:53:47.410Z,17.59
2022-10-17T10:56:21.626Z,17.61
2022-10-17T10:58:56.185Z,17.66
2022-10-17T11:01:41.904Z,17.68
2022-10-17T11:04:23.882Z,17.68
2022-10-17T11:06:51.422Z,17.74
2022-10-17T11:09:36.943Z,17.74
2022-10-17T11:12:25.982Z,17.79
2022-10-17T11:15:14.742Z,17.87
2022-10-17T11:18:04.704Z,17.93
2022-10-17T11:20:34.662Z,18.08
2022-10-17T11:23:39.243Z,18.22
2022-10-17T11:26:11.644Z,18.34
2022-10-17T11:28:38.771Z,18.32
2022-10-17T11:31:15.103Z,18.19
2022-10-17T11:33:54.543Z,18.12
2022-10-17T11:36:26.402Z,18.14
2022-10-17T11:39:04.343Z,18.27
2022-10-17T11:41:36.604Z,18.45
2022-10-17T11:44:20.722Z,18.60
2022-10-17T11:46:51.683Z,18.73
2022-10-17T11:49:24.297Z,18.78
2022-10-17T11:52:54.934Z,18.82
2022-10-17T11:55:28.543Z,18.86
2022-10-17T11:58:18.001Z,18.86
2022-10-17T12:01:16.326Z,18.82
2022-10-17T12:03:53.543Z,18.80
2022-10-17T12:06:51.171Z,18.80
2022-10-17T12:09:24.523Z,18.68
2022-10-17T12:11:57.614Z,18.58
2022-10-17T12:14:41.675Z,18.51
2022-10-17T12:17:38.973Z,18.55
2022-10-17T12:20:44.783Z,18.58
2022-10-17T12:23:12.743Z,18.59
2022-10-17T12:26:04.626Z,18.57
2022-10-17T12:28:41.378Z,18.55
2022-10-17T12:31:18.063Z,18.50
2022-10-17T12:33:50.506Z,18.46
2022-10-17T12:36:17.564Z,18.49
2022-10-17T12:39:07.817Z,18.61
2022-10-17T12:41:41.488Z,18.69
2022-10-17T12:44:14.925Z,18.72
2022-10-17T12:47:08.698Z,18.71
2022-10-17T12:49:56.500Z,18.76
2022-10-17T12:52:37.343Z,18.80
2022-10-17T12:55:12.192Z,18.77
2022-10-17T12:58:08.227Z,18.76
2022-10-17T13:01:18.941Z,18.74
2022-10-17T13:03:48.483Z,18.69
2022-10-17T13:06:21.488Z,18.67
2022-10-17T13:08:59.767Z,18.66
2022-10-17T13:11:31.903Z,18.64
2022-10-17T13:14:01.500Z,18.68
2022-10-17T13:16:38.180Z,18.72
2022-10-17T13:19:14.803Z,18.77
2022-10-17T13:22:17.324Z,18.82
2022-10-17T13:24:44.544Z,18.78
2022-10-17T13:27:31.384Z,18.75
2022-10-17T13:30:02.550Z,18.65
2022-10-17T13:32:41.159Z,18.62
2022-10-17T13:35:14.761Z,18.59
2022-10-17T13:37:48.191Z,18.58
2022-10-17T13:43:15.782Z,18.59
2022-10-17T13:45:49.163Z,18.59
2022-10-17T13:48:27.944Z,18.64
2022-10-17T13:51:02.687Z,18.68
2022-10-17T13:53:31.940Z,18.65
2022-10-17T13:56:28.798Z,18.50
2022-10-17T13:59:05.193Z,18.37
2022-10-17T14:01:32.623Z,18.34
2022-10-17T14:04:09.430Z,18.30
2022-10-17T14:06:46.272Z,18.26
2022-10-17T14:09:28.044Z,18.22
2022-10-17T14:12:13.759Z,18.18
2022-10-17T14:15:08.735Z,18.13
2022-10-17T14:17:29.719Z,18.11
2022-10-17T14:20:36.333Z,18.08
2022-10-17T14:23:10.783Z,18.13
2022-10-17T14:25:40.212Z,18.16
2022-10-17T14:28:15.247Z,18.17
2022-10-17T14:30:58.856Z,18.18
2022-10-17T14:33:31.118Z,18.20
2022-10-17T14:36:00.599Z,18.20
2022-10-17T14:38:28.720Z,18.21
2022-10-17T14:41:30.272Z,18.20
2022-10-17T14:43:59.463Z,18.18
2022-10-17T14:46:27.150Z,18.16
2022-10-17T14:48:56.744Z,18.11
2022-10-17T14:51:23.883Z,18.07
2022-10-17T14:54:30.885Z,18.02
2022-10-17T14:56:58.137Z,17.97
2022-10-17T14:59:52.029Z,17.93
2022-10-17T15:02:13.534Z,17.91
2022-10-17T15:04:40.965Z,17.88
2022-10-17T15:07:09.817Z,17.85
2022-10-17T15:09:36.776Z,17.80
2022-10-17T15:12:06.889Z,17.74
2022-10-17T15:14:33.934Z,17.70
2022-10-17T15:17:01.002Z,17.66
2022-10-17T15:19:28.142Z,17.61
2022-10-17T15:21:55.218Z,17.56
2022-10-17T15:24:22.116Z,17.53
2022-10-17T15:26:49.740Z,17.48
2022-10-17T15:29:16.843Z,17.45
2022-10-17T15:31:43.838Z,17.45
2022-10-17T15:34:10.969Z,17.43
2022-10-17T15:36:41.966Z,17.44
2022-10-17T15:39:09.909Z,17.47
2022-10-17T15:41:36.837Z,17.47
2022-10-17T15:44:03.917Z,17.46
2022-10-17T15:46:33.586Z,17.43
2022-10-17T15:49:11.746Z,17.38
2022-10-17T15:51:39.097Z,17.34
2022-10-17T15:54:06.719Z,17.28
2022-10-17T15:56:38.730Z,17.21
2022-10-17T15:59:08.724Z,17.14
2022-10-17T16:01:36.144Z,17.11
2022-10-17T16:04:03.852Z,17.06
2022-10-17T16:06:31.156Z,17.05
2022-10-17T16:08:58.323Z,17.04
2022-10-17T16:11:32.985Z,17.03
2022-10-17T16:14:02.558Z,17.01
2022-10-17T16:16:30.464Z,17.00
2022-10-17T16:18:57.445Z,17.00
2022-10-17T16:24:03.006Z,17.02
2022-10-17T16:26:30.324Z,17.00
2022-10-17T16:28:58.362Z,17.01
2022-10-17T16:31:29.501Z,17.03
2022-10-17T16:33:57.867Z,17.05
2022-10-17T16:36:25.147Z,17.07
2022-10-17T16:38:54.136Z,17.04
2022-10-17T16:41:24.746Z,17.09
2022-10-17T16:43:53.387Z,17.12
2022-10-17T16:46:21.126Z,17.12
2022-10-17T16:48:48.727Z,17.12
2022-10-17T16:51:18.108Z,17.11
2022-10-17T16:53:46.447Z,17.09
2022-10-17T16:56:15.794Z,17.11
2022-10-17T16:58:43.066Z,17.06
2022-10-17T17:01:13.524Z,17.07
2022-10-17T17:03:42.464Z,17.02
2022-10-17T17:06:12.981Z,17.07
2022-10-17T17:08:40.724Z,17.08
2022-10-17T17:11:12.906Z,17.05
2022-10-17T17:13:41.264Z,17.07
2022-10-17T17:16:09.888Z,17.08
2022-10-17T17:18:37.424Z,17.09
2022-10-17T17:21:06.280Z,17.06
2022-10-17T17:23:35.425Z,17.08
2022-10-17T17:26:05.071Z,17.09
2022-10-17T17:28:33.290Z,17.07
2022-10-17T17:31:01.760Z,17.09
2022-10-17T17:33:30.310Z,17.12
2022-10-17T17:35:58.835Z,17.09
2022-10-17T17:38:26.861Z,17.17
2022-10-17T17:40:54.062Z,17.24
2022-10-17T17:43:21.504Z,17.28
2022-10-17T17:45:48.495Z,17.30
2022-10-17T17:48:15.731Z,17.27
2022-10-17T17:50:43.368Z,17.29
2022-10-17T17:53:11.544Z,17.30
2022-10-17T17:55:38.527Z,17.30
2022-10-17T17:58:06.154Z,17.28
2022-10-17T18:00:33.346Z,17.30
2022-10-17T18:03:00.423Z,17.31
2022-10-17T18:05:27.544Z,17.34
2022-10-17T18:07:54.663Z,17.39
2022-10-17T18:10:21.668Z,17.39
2022-10-17T18:12:48.694Z,17.46
2022-10-17T18:15:16.053Z,17.45
2022-10-17T18:17:43.283Z,17.46
2022-10-17T18:20:10.849Z,17.44
2022-10-17T18:22:38.123Z,17.47
2022-10-17T18:25:06.911Z,17.49
2022-10-17T18:27:34.039Z,17.51
2022-10-17T18:30:01.104Z,17.51
2022-10-17T18:32:31.756Z,17.52
2022-10-17T18:34:59.379Z,17.51
2022-10-17T18:37:26.793Z,17.56
2022-10-17T18:39:56.054Z,17.60
2022-10-17T18:42:23.386Z,17.64
2022-10-17T18:44:50.768Z,17.63
2022-10-17T18:47:17.837Z,17.65
2022-10-17T18:49:45.054Z,17.67
2022-10-17T18:52:12.005Z,17.64
2022-10-17T18:54:39.183Z,17.60
2022-10-17T18:57:06.404Z,17.63
2022-10-17T18:59:33.665Z,17.61
2022-10-17T19:02:00.864Z,17.60
2022-10-17T19:04:28.085Z,17.58
2022-10-17T19:06:55.204Z,17.59
2022-10-17T19:09:22.344Z,17.60
2022-10-17T19:11:49.369Z,17.60
2022-10-17T19:14:16.442Z,17.58
2022-10-17T19:16:46.088Z,17.53
2022-10-17T19:19:20.818Z,17.52
2022-10-17T19:21:48.535Z,17.52
2022-10-17T19:24:19.316Z,17.51
2022-10-17T19:26:47.575Z,17.49
2022-10-17T19:29:15.680Z,17.48
2022-10-17T19:31:43.419Z,17.44
2022-10-17T19:34:11.779Z,17.43
2022-10-17T19:36:39.366Z,17.43
2022-10-17T19:39:10.547Z,17.39
2022-10-17T19:41:38.985Z,17.37
2022-10-17T19:44:07.309Z,17.35
2022-10-17T19:46:35.426Z,17.34
2022-10-17T19:49:03.721Z,17.31
2022-10-17T19:51:31.604Z,17.30
2022-10-17T19:54:03.300Z,17.30
2022-10-17T19:56:31.491Z,17.32
2022-10-17T19:58:59.694Z,17.29
2022-10-17T20:01:29.459Z,17.22
2022-10-17T20:03:57.487Z,17.22
2022-10-17T20:06:25.225Z,17.20
2022-10-17T20:08:53.071Z,17.23
2022-10-17T20:11:25.431Z,17.23
2022-10-17T20:13:53.743Z,17.27
2022-10-17T20:16:23.472Z,17.28
2022-10-17T20:18:51.906Z,17.28
2022-10-17T20:21:24.959Z,17.26
2022-10-17T20:23:52.182Z,17.27
2022-10-17T20:26:37.133Z,17.26
2022-10-17T20:29:11.489Z,17.25
2022-10-17T20:31:40.028Z,17.24
2022-10-17T20:34:07.404Z,17.22
2022-10-17T20:36:37.444Z,17.20
2022-10-17T20:39:05.865Z,17.16
2022-10-17T20:41:33.329Z,17.17
2022-10-17T20:44:00.479Z,17.15
2022-10-17T20:46:36.892Z,17.10
2022-10-17T20:49:08.131Z,17.09
2022-10-17T20:51:35.951Z,17.08
2022-10-17T20:54:03.658Z,17.04
2022-10-17T20:56:32.505Z,17.05
2022-10-17T20:59:01.827Z,17.06
2022-10-17T21:01:30.043Z,17.09
2022-10-17T21:04:06.196Z,17.15
2022-10-17T21:06:43.247Z,17.17
2022-10-17T21:09:10.366Z,17.17
2022-10-17T21:11:37.369Z,17.16
2022-10-17T21:14:06.288Z,17.17
2022-10-17T21:16:35.629Z,17.19
2022-10-17T21:19:03.931Z,17.21
2022-10-17T21:21:36.108Z,17.21
2022-10-17T21:24:05.594Z,17.24
2022-10-17T21:26:34.458Z,17.29
2022-10-17T21:29:05.616Z,17.25
2022-10-17T21:31:43.644Z,17.20
2022-10-17T21:34:13.008Z,17.20
2022-10-17T21:36:40.328Z,17.18
2022-10-17T21:41:34.414Z,17.13
2022-10-17T21:44:07.764Z,17.14
2022-10-17T21:46:34.909Z,17.16
2022-10-17T21:49:01.852Z,17.16
2022-10-17T21:51:29.065Z,17.13
2022-10-17T21:53:57.411Z,17.11
2022-10-17T21:56:28.265Z,17.09
2022-10-17T21:58:55.749Z,17.06
2022-10-17T22:01:28.255Z,17.01
2022-10-17T22:03:57.266Z,16.98
2022-10-17T22:06:43.012Z,16.99
2022-10-17T22:09:16.289Z,17.02
2022-10-17T22:11:46.672Z,16.97
2022-10-17T22:14:16.714Z,16.97
2022-10-17T22:16:45.360Z,17.05
2022-10-17T22:19:14.767Z,17.04
2022-10-17T22:21:41.667Z,17.04
2022-10-17T22:24:12.787Z,17.03
2022-10-17T22:26:40.621Z,17.11
2022-10-17T22:29:08.804Z,17.16
2022-10-17T22:31:36.074Z,17.20
2022-10-17T22:34:05.160Z,17.21
2022-10-17T22:36:33.167Z,17.23
2022-10-17T22:39:00.237Z,17.29
2022-10-17T22:41:27.154Z,17.31
2022-10-17T22:43:54.581Z,17.36
2022-10-17T22:46:21.648Z,17.41
2022-10-17T22:48:48.632Z,17.45
2022-10-17T22:51:15.785Z,17.48
2022-10-17T22:53:42.826Z,17.46
2022-10-17T22:56:12.469Z,17.42
2022-10-17T22:58:39.669Z,17.44
2022-10-17T23:01:08.490Z,17.48
2022-10-17T23:03:35.907Z,17.51
2022-10-17T23:06:03.395Z,17.53
2022-10-17T23:08:30.587Z,17.53
2022-10-17T23:10:57.755Z,17.54
2022-10-17T23:13:25.041Z,17.55
2022-10-17T23:15:53.505Z,17.56
2022-10-17T23:18:21.810Z,17.59
2022-10-17T23:20:49.245Z,17.61
2022-10-17T23:23:16.824Z,17.63
2022-10-17T23:25:43.943Z,17.63
2022-10-17T23:28:11.185Z,17.67
2022-10-17T23:30:39.304Z,17.68
2022-10-17T23:33:07.074Z,17.68
2022-10-17T23:35:34.624Z,17.69
2022-10-17T23:38:01.798Z,17.69
2022-10-17T23:40:29.902Z,17.73
2022-10-17T23:42:56.984Z,17.75
2022-10-17T23:45:24.000Z,17.73
2022-10-17T23:47:51.066Z,17.70
2022-10-17T23:50:18.156Z,17.69
2022-10-17T23:52:45.248Z,17.69
2022-10-17T23:55:12.194Z,17.70
2022-10-17T23:57:39.192Z,17.73
